createdAt,value
2023-10-10T00:01:03.847Z,4.80
2023-10-10T00:03:33.371Z,5.05
2023-10-10T00:06:01.950Z,4.82
2023-10-10T00:08:30.088Z,4.85
2023-10-10T00:10:58.848Z,4.95
2023-10-10T00:13:26.873Z,5.78
2023-10-10T00:15:54.866Z,5.32
2023-10-10T00:18:23.566Z,5.93
2023-10-10T00:20:51.895Z,5.90
2023-10-10T00:23:19.975Z,5.90
2023-10-10T00:25:48.025Z,5.93
2023-10-10T00:28:16.056Z,5.35
2023-10-10T00:30:44.291Z,6.18
2023-10-10T00:33:13.145Z,6.15
2023-10-10T00:35:41.330Z,5.90
2023-10-10T00:38:09.410Z,5.90
2023-10-10T00:40:37.393Z,6.43
2023-10-10T00:43:05.565Z,5.90
2023-10-10T00:45:33.624Z,5.90
2023-10-10T00:48:02.598Z,6.63
2023-10-10T00:50:33.979Z,5.55
2023-10-10T00:53:02.988Z,6.03
2023-10-10T00:55:31.128Z,5.88
2023-10-10T00:58:00.110Z,5.43
2023-10-10T01:00:28.453Z,5.55
2023-10-10T01:02:58.083Z,6.78
2023-10-10T01:05:26.395Z,6.50
2023-10-10T01:07:54.800Z,6.70
2023-10-10T01:10:25.990Z,5.90
2023-10-10T01:12:54.154Z,5.45
2023-10-10T01:15:22.350Z,6.28
2023-10-10T01:17:50.502Z,6.30
2023-10-10T01:20:20.197Z,6.25
2023-10-10T01:22:49.364Z,6.40
2023-10-10T01:25:19.195Z,6.10
2023-10-10T01:27:47.237Z,6.85
2023-10-10T01:30:15.651Z,6.78
2023-10-10T01:32:43.883Z,6.80
2023-10-10T01:35:12.306Z,7.22
2023-10-10T01:37:40.591Z,7.05
2023-10-10T01:40:09.223Z,6.43
2023-10-10T01:42:37.273Z,8.13
2023-10-10T01:45:06.583Z,7.80
2023-10-10T01:47:34.809Z,7.20
2023-10-10T01:50:08.569Z,7.57
2023-10-10T01:52:40.215Z,8.00
2023-10-10T01:55:08.701Z,7.45
2023-10-10T01:57:36.734Z,8.00
2023-10-10T02:00:05.166Z,7.80
2023-10-10T02:02:33.387Z,8.00
2023-10-10T02:05:02.642Z,8.07
2023-10-10T02:07:30.666Z,8.95
2023-10-10T02:09:59.428Z,7.97
2023-10-10T02:12:30.030Z,8.02
2023-10-10T02:14:58.117Z,7.80
2023-10-10T02:17:29.277Z,7.57
2023-10-10T02:19:58.064Z,8.88
2023-10-10T02:22:26.669Z,7.45
2023-10-10T02:24:55.024Z,8.25
2023-10-10T02:27:23.289Z,8.23
2023-10-10T02:29:52.184Z,8.43
2023-10-10T02:32:23.086Z,9.23
2023-10-10T02:34:51.879Z,13.05
2023-10-10T02:37:19.896Z,8.63
2023-10-10T02:39:48.247Z,7.45
2023-10-10T02:42:16.341Z,7.25
2023-10-10T02:44:44.341Z,8.32
2023-10-10T02:47:13.037Z,8.88
2023-10-10T02:49:41.944Z,8.98
2023-10-10T02:52:10.527Z,8.90
2023-10-10T02:54:38.626Z,7.88
2023-10-10T02:57:09.226Z,7.78
2023-10-10T02:59:37.290Z,8.38
2023-10-10T03:02:06.072Z,8.80
2023-10-10T03:04:34.205Z,7.38
2023-10-10T03:07:02.380Z,7.45
2023-10-10T03:09:35.845Z,8.57
2023-10-10T03:12:03.881Z,7.45
2023-10-10T03:14:33.412Z,7.70
2023-10-10T03:17:02.083Z,8.13
2023-10-10T03:19:30.384Z,9.20
2023-10-10T03:21:58.421Z,8.40
2023-10-10T03:24:27.720Z,8.93
2023-10-10T03:26:55.855Z,8.10
2023-10-10T03:29:24.701Z,8.80
2023-10-10T03:31:53.280Z,7.78
2023-10-10T03:34:21.362Z,8.23
2023-10-10T03:36:49.719Z,7.68
2023-10-10T03:39:17.915Z,9.57
2023-10-10T03:41:45.980Z,8.55
2023-10-10T03:44:15.715Z,7.95
2023-10-10T03:46:45.394Z,7.45
2023-10-10T03:49:13.501Z,8.48
2023-10-10T03:51:41.646Z,8.00
2023-10-10T03:54:09.714Z,9.15
2023-10-10T03:56:39.038Z,10.57
2023-10-10T03:59:08.089Z,9.63
2023-10-10T04:01:36.434Z,8.55
2023-10-10T04:04:05.193Z,7.13
2023-10-10T04:06:33.864Z,8.07
2023-10-10T04:09:01.892Z,8.20
2023-10-10T04:11:30.002Z,7.63
2023-10-10T04:14:01.097Z,8.10
2023-10-10T04:16:29.138Z,8.20
2023-10-10T04:18:57.226Z,8.18
2023-10-10T04:21:25.268Z,7.32
2023-10-10T04:23:53.306Z,7.90
2023-10-10T04:26:24.944Z,7.43
2023-10-10T04:28:53.685Z,7.63
2023-10-10T04:31:22.565Z,8.10
2023-10-10T04:33:50.625Z,8.10
2023-10-10T04:36:18.702Z,8.57
2023-10-10T04:38:46.945Z,8.18
2023-10-10T04:41:15.602Z,8.57
2023-10-10T04:43:43.623Z,8.10
2023-10-10T04:46:17.115Z,7.10
2023-10-10T04:48:45.478Z,8.80
2023-10-10T04:51:15.861Z,7.40
2023-10-10T04:53:43.905Z,7.88
2023-10-10T04:56:11.973Z,7.47
2023-10-10T04:58:40.012Z,8.32
2023-10-10T05:01:09.660Z,8.25
2023-10-10T05:03:37.862Z,8.70
2023-10-10T05:06:09.130Z,8.77
2023-10-10T05:08:37.253Z,7.30
2023-10-10T05:11:05.598Z,8.05
2023-10-10T05:13:37.269Z,7.50
2023-10-10T05:16:05.863Z,8.73
2023-10-10T05:18:36.469Z,7.68
2023-10-10T05:21:04.762Z,8.00
2023-10-10T05:23:32.824Z,8.43
2023-10-10T05:26:01.325Z,8.45
2023-10-10T05:28:29.722Z,7.70
2023-10-10T05:30:58.745Z,8.20
2023-10-10T05:33:27.157Z,8.50
2023-10-10T05:36:00.495Z,7.60
2023-10-10T05:38:28.695Z,8.18
2023-10-10T05:40:59.496Z,9.55
2023-10-10T05:43:29.103Z,7.53
2023-10-10T05:45:57.186Z,7.93
2023-10-10T05:48:25.573Z,7.53
2023-10-10T05:50:54.125Z,7.78
2023-10-10T05:53:22.252Z,8.65
2023-10-10T05:55:50.552Z,8.80
2023-10-10T05:58:21.676Z,8.95
2023-10-10T06:00:49.826Z,8.48
2023-10-10T06:03:19.020Z,8.43
2023-10-10T06:05:47.263Z,8.23
2023-10-10T06:08:15.562Z,7.05
2023-10-10T06:10:43.941Z,7.15
2023-10-10T06:13:11.962Z,7.95
2023-10-10T06:15:40.173Z,9.05
2023-10-10T06:18:08.862Z,10.30
2023-10-10T06:20:51.390Z,9.63
2023-10-10T06:23:30.332Z,9.85
2023-10-10T06:26:01.288Z,9.60
2023-10-10T06:28:30.917Z,9.60
2023-10-10T06:30:59.300Z,9.38
2023-10-10T06:33:28.350Z,8.85
2023-10-10T06:36:12.671Z,9.68
2023-10-10T06:38:41.376Z,8.70
2023-10-10T06:41:09.459Z,8.93
2023-10-10T06:43:37.823Z,9.60
2023-10-10T06:46:05.945Z,9.45
2023-10-10T06:48:34.257Z,8.90
2023-10-10T06:51:05.052Z,8.52
2023-10-10T06:53:33.902Z,9.13
2023-10-10T06:56:07.998Z,8.07
2023-10-10T06:58:35.986Z,7.35
2023-10-10T07:01:04.055Z,6.75
2023-10-10T07:03:32.319Z,7.65
2023-10-10T07:06:00.492Z,7.88
2023-10-10T07:08:28.523Z,8.43
2023-10-10T07:10:56.607Z,9.65
2023-10-10T07:13:24.796Z,7.78
2023-10-10T07:15:52.873Z,8.73
2023-10-10T07:18:21.765Z,8.05
2023-10-10T07:20:51.277Z,8.07
2023-10-10T07:23:19.275Z,7.32
2023-10-10T07:25:48.004Z,7.30
2023-10-10T07:28:16.078Z,7.97
2023-10-10T07:30:45.796Z,8.27
2023-10-10T07:33:14.181Z,8.70
2023-10-10T07:35:46.525Z,8.20
2023-10-10T07:38:15.266Z,8.05
2023-10-10T07:40:44.085Z,8.23
2023-10-10T07:43:12.398Z,7.07
2023-10-10T07:45:42.044Z,6.68
2023-10-10T07:48:13.303Z,6.65
2023-10-10T07:50:44.341Z,6.40
2023-10-10T07:53:12.367Z,8.30
2023-10-10T07:55:41.580Z,7.72
2023-10-10T07:58:10.464Z,6.93
2023-10-10T08:00:38.788Z,7.88
2023-10-10T08:03:10.401Z,7.88
2023-10-10T08:05:38.614Z,8.07
2023-10-10T08:08:06.907Z,11.27
2023-10-10T08:10:35.123Z,9.60
2023-10-10T08:13:03.175Z,8.45
2023-10-10T08:15:31.223Z,7.78
2023-10-10T08:17:59.470Z,11.20
2023-10-10T08:20:29.835Z,11.32
2023-10-10T08:22:58.117Z,11.23
2023-10-10T08:25:29.679Z,14.65
2023-10-10T08:27:58.441Z,13.10
2023-10-10T08:30:27.646Z,12.40
2023-10-10T08:32:58.330Z,15.38
2023-10-10T08:35:27.341Z,13.48
2023-10-10T08:37:55.441Z,12.93
2023-10-10T08:40:23.465Z,12.27
2023-10-10T08:42:52.160Z,11.43
2023-10-10T08:45:21.382Z,11.45
2023-10-10T08:47:53.222Z,9.88
2023-10-10T08:50:22.698Z,10.68
2023-10-10T08:52:50.771Z,10.27
2023-10-10T08:55:21.002Z,10.32
2023-10-10T08:57:49.036Z,9.95
2023-10-10T09:00:17.467Z,10.38
2023-10-10T09:02:47.175Z,11.30
2023-10-10T09:05:18.852Z,11.45
2023-10-10T09:07:47.319Z,11.25
2023-10-10T09:10:15.457Z,13.70
2023-10-10T09:12:44.836Z,16.10
2023-10-10T09:15:13.922Z,14.30
2023-10-10T09:17:42.723Z,13.75
2023-10-10T09:20:24.552Z,14.40
2023-10-10T09:22:59.725Z,13.35
2023-10-10T09:25:29.754Z,15.18
2023-10-10T09:28:05.676Z,10.07
2023-10-10T09:30:34.729Z,11.95
2023-10-10T09:33:04.417Z,12.43
2023-10-10T09:35:32.567Z,10.95
2023-10-10T09:38:04.103Z,15.15
2023-10-10T09:40:32.179Z,12.23
2023-10-10T09:43:02.824Z,10.98
2023-10-10T09:45:36.591Z,11.20
2023-10-10T09:48:08.462Z,10.32
2023-10-10T09:50:37.069Z,11.73
2023-10-10T09:53:06.022Z,11.95
2023-10-10T09:55:35.458Z,11.98
2023-10-10T09:58:05.463Z,10.57
2023-10-10T10:00:39.345Z,11.32
2023-10-10T10:05:38.671Z,10.00
2023-10-10T10:08:21.126Z,11.68
2023-10-10T10:10:59.423Z,13.13
2023-10-10T10:14:05.029Z,12.05
2023-10-10T10:16:57.815Z,12.57
2023-10-10T10:19:26.199Z,11.45
2023-10-10T10:22:01.431Z,13.38
2023-10-10T10:24:53.176Z,12.85
2023-10-10T10:27:26.223Z,16.77
2023-10-10T10:30:05.694Z,14.07
2023-10-10T10:32:36.811Z,14.65
2023-10-10T10:35:05.187Z,14.93
2023-10-10T10:37:33.254Z,16.25
2023-10-10T10:40:04.800Z,14.07
2023-10-10T10:42:35.876Z,14.48
2023-10-10T10:45:22.431Z,15.80
2023-10-10T10:47:55.812Z,16.00
2023-10-10T10:50:33.220Z,14.77
2023-10-10T10:53:05.935Z,15.30
2023-10-10T10:55:35.005Z,16.25
2023-10-10T10:58:03.328Z,15.85
2023-10-10T11:00:40.220Z,15.13
2023-10-10T11:03:08.741Z,5.32
2023-10-10T11:05:37.761Z,13.82
2023-10-10T11:08:06.332Z,59.67
2023-10-10T11:10:34.365Z,33.05
2023-10-10T11:13:02.368Z,12.77
2023-10-10T11:15:30.713Z,28.02
2023-10-10T11:17:59.144Z,21.45
2023-10-10T11:20:28.936Z,15.60
2023-10-10T11:22:58.118Z,20.45
2023-10-10T11:25:26.366Z,15.20
2023-10-10T11:27:57.488Z,12.57
2023-10-10T11:30:27.996Z,15.82
2023-10-10T11:32:56.378Z,13.90
2023-10-10T11:35:26.842Z,16.98
2023-10-10T11:37:55.273Z,15.48
2023-10-10T11:40:23.657Z,13.65
2023-10-10T11:42:52.130Z,13.73
2023-10-10T11:45:20.328Z,15.27
2023-10-10T11:47:49.806Z,15.70
2023-10-10T11:50:17.950Z,227.68
2023-10-10T11:52:53.227Z,999.90
2023-10-10T11:55:31.047Z,999.90
2023-10-10T11:58:00.118Z,999.90
2023-10-10T12:00:28.601Z,999.90
2023-10-10T12:02:57.596Z,999.90
2023-10-10T12:05:26.416Z,315.10
2023-10-10T12:08:06.262Z,359.13
2023-10-10T12:10:35.945Z,207.98
2023-10-10T12:13:03.996Z,19.50
2023-10-10T12:15:32.850Z,181.30
2023-10-10T12:18:01.567Z,373.88
2023-10-10T12:20:29.683Z,123.13
2023-10-10T12:22:58.016Z,14.48
2023-10-10T12:25:26.683Z,16.45
2023-10-10T12:27:54.689Z,14.02
2023-10-10T12:30:22.751Z,12.70
2023-10-10T12:32:50.924Z,12.20
2023-10-10T12:35:19.320Z,12.25
2023-10-10T12:37:47.377Z,11.30
2023-10-10T12:40:15.474Z,11.82
2023-10-10T12:42:43.754Z,10.77
2023-10-10T12:45:13.168Z,11.80
2023-10-10T12:47:41.607Z,12.48
2023-10-10T12:50:10.014Z,12.90
2023-10-10T12:52:38.109Z,12.13
2023-10-10T12:55:06.516Z,11.18
2023-10-10T12:57:34.662Z,11.30
2023-10-10T13:00:05.938Z,17.55
2023-10-10T13:02:37.005Z,11.85
2023-10-10T13:05:05.276Z,11.82
2023-10-10T13:07:33.934Z,11.65
2023-10-10T13:10:01.960Z,12.23
2023-10-10T13:12:30.043Z,10.60
2023-10-10T13:15:00.430Z,9.45
2023-10-10T13:17:28.789Z,10.57
2023-10-10T13:19:57.279Z,12.25
2023-10-10T13:22:27.850Z,11.02
2023-10-10T13:24:55.868Z,999.90
2023-10-10T13:27:24.382Z,12.90
2023-10-10T13:29:52.416Z,10.40
2023-10-10T13:32:20.752Z,11.38
2023-10-10T13:34:49.560Z,9.88
2023-10-10T13:37:17.623Z,10.07
2023-10-10T13:39:45.874Z,8.60
2023-10-10T13:42:14.235Z,8.52
2023-10-10T13:44:43.458Z,10.60
2023-10-10T13:47:14.843Z,11.02
2023-10-10T13:49:42.925Z,10.70
2023-10-10T13:52:10.990Z,10.57
2023-10-10T13:54:39.639Z,12.88
2023-10-10T13:57:07.639Z,12.25
2023-10-10T13:59:35.850Z,10.93
2023-10-10T14:02:04.456Z,10.73
2023-10-10T14:04:33.330Z,10.05
2023-10-10T14:07:04.750Z,10.88
2023-10-10T14:09:33.138Z,8.48
2023-10-10T14:12:06.201Z,12.65
2023-10-10T14:14:34.572Z,11.15
2023-10-10T14:17:02.657Z,11.75
2023-10-10T14:19:30.758Z,10.57
2023-10-10T14:22:01.778Z,11.10
2023-10-10T14:24:29.808Z,10.30
2023-10-10T14:26:57.833Z,12.63
2023-10-10T14:29:25.947Z,13.52
2023-10-10T14:31:54.654Z,13.65
2023-10-10T14:34:22.684Z,11.38
2023-10-10T14:36:51.062Z,10.07
2023-10-10T14:39:20.090Z,11.10
2023-10-10T14:41:48.186Z,12.68
2023-10-10T14:44:17.432Z,12.38
2023-10-10T14:46:45.422Z,11.80
2023-10-10T14:49:13.401Z,11.65
2023-10-10T14:51:41.585Z,15.27
2023-10-10T14:54:11.454Z,15.05
2023-10-10T14:56:43.264Z,14.02
2023-10-10T14:59:11.347Z,14.18
2023-10-10T15:01:39.732Z,15.57
2023-10-10T15:04:08.981Z,9.77
2023-10-10T15:06:38.325Z,10.52
2023-10-10T15:09:11.138Z,9.18
2023-10-10T15:11:39.149Z,9.23
2023-10-10T15:14:07.216Z,8.82
2023-10-10T15:16:35.386Z,4.97
2023-10-10T15:19:03.490Z,5.57
2023-10-10T15:21:31.485Z,8.55
2023-10-10T15:23:59.594Z,7.05
2023-10-10T15:26:27.757Z,6.85
2023-10-10T15:28:56.996Z,7.10
2023-10-10T15:31:27.887Z,8.30
2023-10-10T15:33:57.707Z,6.50
2023-10-10T15:36:35.347Z,7.90
2023-10-10T15:39:04.884Z,9.23
2023-10-10T15:41:34.591Z,8.73
2023-10-10T15:44:02.691Z,9.02
2023-10-10T15:46:35.434Z,10.27
2023-10-10T15:49:07.882Z,8.52
2023-10-10T15:51:39.338Z,7.70
2023-10-10T15:54:11.171Z,6.75
2023-10-10T15:56:39.436Z,4.93
2023-10-10T15:59:07.490Z,6.47
2023-10-10T16:01:35.774Z,7.97
2023-10-10T16:04:08.281Z,5.47
2023-10-10T16:06:37.385Z,3.78
2023-10-10T16:09:07.833Z,5.93
2023-10-10T16:11:36.404Z,5.35
2023-10-10T16:14:05.755Z,5.68
2023-10-10T16:16:33.761Z,5.35
2023-10-10T16:19:01.946Z,4.30
2023-10-10T16:21:29.938Z,4.72
2023-10-10T16:23:57.967Z,5.10
2023-10-10T16:26:26.132Z,4.00
2023-10-10T16:28:54.199Z,3.83
2023-10-10T16:31:22.498Z,4.15
2023-10-10T16:33:51.278Z,5.45
2023-10-10T16:36:19.319Z,4.60
2023-10-10T16:38:48.271Z,4.22
2023-10-10T16:41:16.311Z,4.40
2023-10-10T16:43:58.098Z,4.63
2023-10-10T16:48:56.789Z,4.35
2023-10-10T16:51:25.518Z,3.83
2023-10-10T16:53:54.325Z,4.07
2023-10-10T16:56:22.610Z,3.53
2023-10-10T16:58:51.441Z,3.78
2023-10-10T17:01:21.296Z,3.75
2023-10-10T17:03:51.669Z,4.03
2023-10-10T17:06:20.792Z,3.65
2023-10-10T17:08:48.913Z,3.50
2023-10-10T17:11:16.980Z,3.50
2023-10-10T17:13:45.253Z,3.88
2023-10-10T17:16:15.161Z,3.45
2023-10-10T17:18:44.791Z,3.63
2023-10-10T17:21:14.569Z,4.70
2023-10-10T17:23:43.362Z,3.38
2023-10-10T17:26:13.044Z,3.63
2023-10-10T17:28:42.619Z,3.85
2023-10-10T17:31:12.899Z,3.95
2023-10-10T17:33:41.075Z,3.97
2023-10-10T17:36:09.635Z,3.72
2023-10-10T17:38:38.301Z,3.90
2023-10-10T17:41:07.898Z,3.88
2023-10-10T17:43:37.342Z,3.22
2023-10-10T17:46:05.475Z,3.67
2023-10-10T17:48:33.652Z,4.30
2023-10-10T17:51:02.712Z,3.60
2023-10-10T17:53:30.948Z,3.90
2023-10-10T17:55:59.072Z,3.90
2023-10-10T17:58:27.735Z,3.55
2023-10-10T18:00:56.072Z,3.88
2023-10-10T18:03:24.553Z,4.03
2023-10-10T18:05:52.859Z,3.72
2023-10-10T18:08:20.958Z,3.80
2023-10-10T18:10:49.791Z,3.67
2023-10-10T18:13:20.239Z,2.83
2023-10-10T18:15:48.339Z,3.38
2023-10-10T18:18:16.511Z,3.67
2023-10-10T18:20:45.090Z,3.80
2023-10-10T18:23:13.168Z,3.47
2023-10-10T18:25:41.896Z,3.40
2023-10-10T18:28:11.919Z,3.15
2023-10-10T18:30:41.608Z,4.00
2023-10-10T18:33:10.689Z,3.92
2023-10-10T18:35:41.407Z,4.05
2023-10-10T18:38:09.853Z,2.90
2023-10-10T18:40:42.220Z,3.15
2023-10-10T18:43:10.664Z,3.60
2023-10-10T18:45:39.876Z,3.70
2023-10-10T18:48:08.841Z,4.03
2023-10-10T18:50:37.801Z,3.50
2023-10-10T18:53:05.993Z,3.90
2023-10-10T18:55:33.973Z,3.58
2023-10-10T18:58:02.047Z,3.45
2023-10-10T19:00:34.637Z,3.50
2023-10-10T19:03:05.376Z,3.50
2023-10-10T19:05:33.705Z,3.45
2023-10-10T19:08:01.833Z,3.45
2023-10-10T19:10:30.115Z,3.88
2023-10-10T19:13:01.387Z,3.15
2023-10-10T19:15:29.464Z,3.13
2023-10-10T19:17:58.448Z,3.58
2023-10-10T19:20:28.327Z,3.67
2023-10-10T19:22:58.039Z,3.80
2023-10-10T19:25:26.200Z,3.95
2023-10-10T19:27:56.863Z,3.38
2023-10-10T19:30:28.745Z,4.07
2023-10-10T19:32:57.781Z,3.40
2023-10-10T19:35:27.186Z,3.40
2023-10-10T19:37:57.949Z,4.05
2023-10-10T19:40:28.032Z,3.53
2023-10-10T19:42:58.959Z,3.90
2023-10-10T19:45:27.496Z,3.75
2023-10-10T19:47:57.655Z,4.40
2023-10-10T19:50:26.572Z,3.63
2023-10-10T19:52:55.142Z,3.85
2023-10-10T19:55:23.191Z,3.90
2023-10-10T19:57:52.110Z,3.17
2023-10-10T20:00:20.897Z,3.20
2023-10-10T20:02:54.009Z,3.53
2023-10-10T20:05:22.107Z,3.70
2023-10-10T20:07:51.158Z,3.47
2023-10-10T20:10:24.136Z,3.17
2023-10-10T20:12:52.972Z,3.17
2023-10-10T20:15:26.418Z,3.63
2023-10-10T20:17:58.698Z,3.30
2023-10-10T20:20:28.236Z,4.28
2023-10-10T20:22:56.606Z,3.72
2023-10-10T20:25:25.736Z,3.63
2023-10-10T20:27:53.801Z,3.83
2023-10-10T20:30:25.981Z,4.13
2023-10-10T20:32:55.451Z,4.50
2023-10-10T20:35:24.193Z,4.82
2023-10-10T20:37:53.737Z,4.32
2023-10-10T20:40:22.650Z,4.32
2023-10-10T20:42:50.918Z,4.97
2023-10-10T20:45:23.293Z,4.28
2023-10-10T20:47:51.818Z,5.32
2023-10-10T20:50:20.642Z,5.32
2023-10-10T20:52:48.679Z,5.07
2023-10-10T20:55:17.009Z,5.20
2023-10-10T20:57:46.216Z,5.07
2023-10-10T21:00:14.742Z,5.22
2023-10-10T21:02:42.820Z,5.13
2023-10-10T21:05:11.798Z,5.07
2023-10-10T21:07:39.816Z,3.88
2023-10-10T21:10:08.653Z,4.55
2023-10-10T21:12:36.702Z,4.20
2023-10-10T21:15:05.229Z,5.35
2023-10-10T21:17:34.185Z,5.40
2023-10-10T21:20:05.331Z,5.15
2023-10-10T21:22:36.955Z,5.10
2023-10-10T21:25:05.667Z,5.05
2023-10-10T21:27:35.166Z,4.18
2023-10-10T21:30:04.831Z,4.32
2023-10-10T21:32:34.476Z,4.20
2023-10-10T21:35:03.350Z,3.78
2023-10-10T21:37:31.572Z,3.60
2023-10-10T21:39:59.719Z,2.03
2023-10-10T21:42:27.732Z,1.33
2023-10-10T21:44:55.843Z,1.38
2023-10-10T21:47:23.983Z,1.20
2023-10-10T21:49:52.070Z,154.98
2023-10-10T21:52:20.352Z,1.20
2023-10-10T21:54:50.593Z,4.40
2023-10-10T21:57:18.850Z,0.80
2023-10-10T21:59:47.233Z,1.10
2023-10-10T22:02:15.352Z,1.02
2023-10-10T22:04:43.762Z,0.95
2023-10-10T22:07:23.523Z,1.50
2023-10-10T22:09:57.019Z,0.88
2023-10-10T22:12:25.363Z,1.38
2023-10-10T22:14:53.467Z,1.50
2023-10-10T22:17:21.566Z,1.33
2023-10-10T22:19:49.945Z,1.60
2023-10-10T22:22:18.836Z,1.02
2023-10-10T22:24:47.571Z,1.17
2023-10-10T22:27:15.660Z,1.20
2023-10-10T22:29:44.086Z,1.00
2023-10-10T22:32:12.377Z,0.90
2023-10-10T22:34:41.102Z,1.25
2023-10-10T22:37:09.280Z,1.17
2023-10-10T22:39:37.337Z,1.30
2023-10-10T22:42:05.549Z,0.90
2023-10-10T22:44:33.684Z,1.10
2023-10-10T22:47:01.733Z,1.90
2023-10-10T22:49:29.729Z,2.58
2023-10-10T22:52:00.401Z,2.20
2023-10-10T22:54:28.445Z,2.58
2023-10-10T22:56:58.388Z,2.30
2023-10-10T22:59:26.692Z,2.28
2023-10-10T23:01:54.823Z,2.40
2023-10-10T23:04:23.012Z,2.45
2023-10-10T23:06:53.381Z,2.08
2023-10-10T23:09:22.099Z,2.75
2023-10-10T23:11:50.469Z,2.78
2023-10-10T23:14:19.345Z,2.38
2023-10-10T23:16:47.685Z,2.53
2023-10-10T23:19:16.005Z,2.40
2023-10-10T23:21:44.214Z,2.20
2023-10-10T23:24:12.369Z,2.47
2023-10-10T23:26:40.475Z,2.65
2023-10-10T23:29:08.520Z,1.88
2023-10-10T23:31:37.351Z,2.20
2023-10-10T23:34:05.384Z,1.75
2023-10-10T23:36:34.801Z,2.63
2023-10-10T23:39:02.808Z,1.90
2023-10-10T23:41:31.460Z,2.30
2023-10-10T23:43:59.543Z,2.53
2023-10-10T23:46:27.723Z,2.60
2023-10-10T23:48:55.826Z,2.63
2023-10-10T23:51:24.081Z,2.30
2023-10-10T23:53:52.138Z,2.40
2023-10-10T23:56:20.207Z,2.60
2023-10-10T23:58:48.253Z,2.50
